createdAt,value
2019-01-16T00:01:19.928Z,100090.98
2019-01-16T00:04:14.159Z,100088.36
2019-01-16T00:06:56.102Z,100092.82
2019-01-16T00:09:50.469Z,100094.24
2019-01-16T00:12:44.384Z,100101.31
2019-01-16T00:15:25.600Z,100103.59
2019-01-16T00:18:22.367Z,100109.31
2019-01-16T00:21:08.012Z,100106.92
2019-01-16T00:23:54.490Z,100109.56
2019-01-16T00:26:42.847Z,100107.34
2019-01-16T00:29:29.268Z,100109.61
2019-01-16T00:32:20.372Z,100105.75
2019-01-16T00:35:08.396Z,100113.28
2019-01-16T00:37:53.735Z,100110.92
2019-01-16T00:40:31.381Z,100102.48
2019-01-16T00:43:10.976Z,100108.02
2019-01-16T00:45:58.981Z,100098.27
2019-01-16T00:48:40.355Z,100106.08
2019-01-16T00:51:46.727Z,100110.20
2019-01-16T00:54:33.514Z,100111.35
2019-01-16T00:57:21.502Z,100115.02
2019-01-16T01:00:10.536Z,100117.61
2019-01-16T01:02:57.049Z,100115.28
2019-01-16T01:05:44.060Z,100123.81
2019-01-16T01:08:37.730Z,100121.95
2019-01-16T01:11:25.981Z,100124.36
2019-01-16T01:14:09.626Z,100129.03
2019-01-16T01:16:55.870Z,100128.84
2019-01-16T01:19:42.549Z,100132.23
2019-01-16T01:22:30.651Z,100134.41
2019-01-16T01:25:21.800Z,100139.39
2019-01-16T01:28:02.235Z,100130.55
2019-01-16T01:30:46.467Z,100135.58
2019-01-16T01:33:25.609Z,100141.17
2019-01-16T01:36:28.600Z,100139.25
2019-01-16T01:39:26.696Z,100138.58
2019-01-16T01:42:08.763Z,100150.73
2019-01-16T01:44:58.059Z,100151.28
2019-01-16T01:47:46.157Z,100155.31
2019-01-16T01:50:33.248Z,100154.41
2019-01-16T01:53:24.079Z,100157.57
2019-01-16T01:56:24.216Z,100160.45
2019-01-16T01:59:10.975Z,100165.84
2019-01-16T02:02:01.544Z,100163.23
2019-01-16T02:04:58.716Z,100156.84
2019-01-16T02:07:46.962Z,100154.32
2019-01-16T02:10:41.165Z,100154.46
2019-01-16T02:13:30.699Z,100165.30
2019-01-16T02:16:18.759Z,100162.95
2019-01-16T02:19:18.915Z,100167.11
2019-01-16T02:22:06.994Z,100165.78
2019-01-16T02:24:54.853Z,100163.92
2019-01-16T02:27:36.286Z,100160.14
2019-01-16T02:30:25.620Z,100163.95
2019-01-16T02:33:22.775Z,100167.30
2019-01-16T02:36:19.945Z,100166.59
2019-01-16T02:39:11.000Z,100165.30
2019-01-16T02:41:57.545Z,100169.70
2019-01-16T02:44:44.098Z,100171.61
2019-01-16T02:47:37.971Z,100173.03
2019-01-16T02:50:28.974Z,100171.67
2019-01-16T02:53:35.437Z,100170.06
2019-01-16T02:56:26.388Z,100170.10
2019-01-16T02:59:17.376Z,100170.89
2019-01-16T03:02:05.391Z,100173.89
2019-01-16T03:04:52.264Z,100173.31
2019-01-16T03:07:58.403Z,100162.95
2019-01-16T03:10:55.642Z,100169.19
2019-01-16T03:13:43.759Z,100168.06
2019-01-16T03:16:38.283Z,100163.63
2019-01-16T03:19:26.829Z,100170.11
2019-01-16T03:22:23.939Z,100175.75
2019-01-16T03:25:10.682Z,100174.08
2019-01-16T03:27:57.579Z,100170.19
2019-01-16T03:30:48.659Z,100171.19
2019-01-16T03:33:39.862Z,100171.97
2019-01-16T03:36:26.595Z,100174.06
2019-01-16T03:39:10.538Z,100175.08
2019-01-16T03:41:50.808Z,100171.48
2019-01-16T03:44:44.014Z,100169.00
2019-01-16T03:47:38.179Z,100170.66
2019-01-16T03:50:29.919Z,100170.40
2019-01-16T03:53:20.981Z,100168.77
2019-01-16T03:56:03.760Z,100174.98
2019-01-16T03:59:09.763Z,100160.27
2019-01-16T04:01:56.550Z,100161.37
2019-01-16T04:04:43.620Z,100158.33
2019-01-16T04:07:34.928Z,100163.55
2019-01-16T04:10:21.126Z,100166.22
2019-01-16T04:13:12.119Z,100154.78
2019-01-16T04:16:06.201Z,100148.28
2019-01-16T04:18:54.414Z,100151.01
2019-01-16T04:21:28.830Z,100153.97
2019-01-16T04:24:23.156Z,100155.59
2019-01-16T04:27:20.268Z,100162.14
2019-01-16T04:30:07.490Z,100150.97
2019-01-16T04:32:58.501Z,100154.78
2019-01-16T04:35:45.704Z,100156.19
2019-01-16T04:38:34.973Z,100160.09
2019-01-16T04:41:23.933Z,100162.27
2019-01-16T04:44:15.300Z,100160.13
2019-01-16T04:47:02.202Z,100148.81
2019-01-16T04:49:41.514Z,100156.44
2019-01-16T04:52:39.009Z,100155.35
2019-01-16T04:55:27.046Z,100146.91
2019-01-16T04:58:27.698Z,100148.27
2019-01-16T05:01:04.767Z,100148.27
2019-01-16T05:04:11.207Z,100150.67
2019-01-16T05:06:49.305Z,100149.59
2019-01-16T05:09:46.090Z,100143.88
2019-01-16T05:12:32.610Z,100141.69
2019-01-16T05:15:14.645Z,100139.78
2019-01-16T05:17:59.233Z,100138.42
2019-01-16T05:20:45.927Z,100134.64
2019-01-16T05:23:33.955Z,100137.06
2019-01-16T05:26:32.853Z,100134.33
2019-01-16T05:29:20.896Z,100128.87
2019-01-16T05:32:09.145Z,100125.61
2019-01-16T05:35:02.981Z,100125.34
2019-01-16T05:37:49.763Z,100120.71
2019-01-16T05:40:40.799Z,100119.89
2019-01-16T05:43:37.636Z,100124.29
2019-01-16T05:46:21.625Z,100132.50
2019-01-16T05:49:09.716Z,100125.73
2019-01-16T05:51:50.053Z,100127.12
2019-01-16T05:54:29.058Z,100119.22
2019-01-16T05:57:12.751Z,100129.30
2019-01-16T05:59:52.856Z,100121.95
2019-01-16T06:02:39.470Z,100125.73
2019-01-16T06:05:33.726Z,100125.73
2019-01-16T06:08:34.052Z,100125.18
2019-01-16T06:11:24.950Z,100116.46
2019-01-16T06:14:12.972Z,100120.28
2019-01-16T06:17:01.188Z,100115.41
2019-01-16T06:19:56.644Z,100113.27
2019-01-16T06:22:41.371Z,100113.80
2019-01-16T06:25:35.396Z,100107.30
2019-01-16T06:28:23.759Z,100103.21
2019-01-16T06:31:05.295Z,100105.63
2019-01-16T06:33:51.933Z,100105.94
2019-01-16T06:36:32.775Z,100111.42
2019-01-16T06:39:26.274Z,100113.88
2019-01-16T06:42:14.416Z,100108.13
2019-01-16T06:44:56.423Z,100110.30
2019-01-16T06:47:32.014Z,100104.06
2019-01-16T06:50:16.621Z,100102.16
2019-01-16T06:53:10.542Z,100105.70
2019-01-16T06:56:16.725Z,100105.97
2019-01-16T06:58:56.699Z,100108.28
2019-01-16T07:01:47.487Z,100097.92
2019-01-16T07:04:33.978Z,100096.56
2019-01-16T07:07:20.901Z,100095.98
2019-01-16T07:10:00.944Z,100094.59
2019-01-16T07:12:47.629Z,100091.83
2019-01-16T07:15:44.822Z,100090.86
2019-01-16T07:18:41.903Z,100094.10
2019-01-16T07:21:24.323Z,100098.44
2019-01-16T07:24:12.611Z,100098.50
2019-01-16T07:27:00.655Z,100101.73
2019-01-16T07:29:48.536Z,100095.47
2019-01-16T07:32:33.919Z,100094.16
2019-01-16T07:35:20.981Z,100100.41
2019-01-16T07:38:05.109Z,100102.01
2019-01-16T07:40:53.269Z,100102.01
2019-01-16T07:43:47.267Z,100098.80
2019-01-16T07:46:27.439Z,100106.98
2019-01-16T07:49:09.275Z,100097.98
2019-01-16T07:51:55.948Z,100094.68
2019-01-16T07:54:47.051Z,100095.50
2019-01-16T07:57:35.392Z,100098.80
2019-01-16T08:00:32.834Z,100100.46
2019-01-16T08:03:19.842Z,100093.92
2019-01-16T08:06:07.928Z,100088.77
2019-01-16T08:08:47.615Z,100089.34
2019-01-16T08:11:38.733Z,100076.48
2019-01-16T08:14:25.335Z,100078.17
2019-01-16T08:17:16.180Z,100081.20
2019-01-16T08:20:03.102Z,100079.05
2019-01-16T08:22:43.441Z,100071.95
2019-01-16T08:25:31.604Z,100069.40
2019-01-16T08:28:11.356Z,100068.36
2019-01-16T08:30:53.264Z,100066.20
2019-01-16T08:33:59.408Z,100058.02
2019-01-16T08:36:50.520Z,100050.42
2019-01-16T08:39:36.777Z,100058.06
2019-01-16T08:42:40.246Z,100047.23
2019-01-16T08:45:28.803Z,100048.11
2019-01-16T08:48:18.417Z,100044.06
2019-01-16T08:51:20.196Z,100043.55
2019-01-16T08:54:07.089Z,100042.73
2019-01-16T08:56:53.135Z,100043.85
2019-01-16T08:59:39.734Z,100047.14
2019-01-16T09:02:32.870Z,100044.41
2019-01-16T09:05:32.990Z,100045.30
2019-01-16T09:08:32.951Z,100043.93
2019-01-16T09:11:27.040Z,100041.48
2019-01-16T09:14:15.409Z,100039.31
2019-01-16T09:16:54.830Z,100037.39
2019-01-16T09:19:41.271Z,100030.27
2019-01-16T09:22:32.061Z,100026.73
2019-01-16T09:25:25.949Z,100026.98
2019-01-16T09:28:12.723Z,100018.78
2019-01-16T09:30:57.403Z,100017.69
2019-01-16T09:34:03.603Z,100017.98
2019-01-16T09:36:50.954Z,100012.50
2019-01-16T09:39:42.151Z,100006.75
2019-01-16T09:42:28.573Z,100001.55
2019-01-16T09:45:15.347Z,100002.09
2019-01-16T09:48:00.735Z,100000.19
2019-01-16T09:50:47.959Z,100001.00
2019-01-16T09:53:30.778Z,99997.17
2019-01-16T09:56:27.766Z,99994.98
2019-01-16T09:59:11.570Z,99992.77
2019-01-16T10:02:08.482Z,99999.31
2019-01-16T10:04:56.805Z,99989.41
2019-01-16T10:07:43.457Z,99991.34
2019-01-16T10:10:22.879Z,99990.78
2019-01-16T10:13:17.263Z,99997.08
2019-01-16T10:16:03.759Z,99977.05
2019-01-16T10:18:50.614Z,99973.77
2019-01-16T10:21:53.518Z,99969.33
2019-01-16T10:24:40.435Z,99964.89
2019-01-16T10:27:43.512Z,99962.14
2019-01-16T10:30:33.874Z,99956.08
2019-01-16T10:33:40.283Z,99958.81
2019-01-16T10:36:34.456Z,99957.66
2019-01-16T10:39:14.602Z,99953.55
2019-01-16T10:42:05.476Z,99937.38
2019-01-16T10:44:53.592Z,99936.46
2019-01-16T10:47:43.554Z,99934.17
2019-01-16T10:50:41.097Z,99944.27
2019-01-16T10:53:24.164Z,99936.59
2019-01-16T10:56:24.518Z,99929.20
2019-01-16T10:59:10.204Z,99929.45
2019-01-16T11:01:56.949Z,99922.58
2019-01-16T11:04:43.415Z,99915.06
2019-01-16T11:07:31.651Z,99918.72
2019-01-16T11:10:16.349Z,99915.05
2019-01-16T11:13:03.304Z,99918.73
2019-01-16T11:15:54.361Z,99910.67
2019-01-16T11:18:40.763Z,99906.41
2019-01-16T11:21:26.765Z,99903.31
2019-01-16T11:24:29.904Z,99904.61
2019-01-16T11:27:20.742Z,99906.02
2019-01-16T11:30:17.008Z,99900.22
2019-01-16T11:33:22.998Z,99902.87
2019-01-16T11:36:20.351Z,99897.86
2019-01-16T11:39:14.292Z,99890.50
2019-01-16T11:42:08.613Z,99884.03
2019-01-16T11:44:55.058Z,99889.33
2019-01-16T11:47:41.703Z,99878.91
2019-01-16T11:50:32.817Z,99872.19
2019-01-16T11:53:27.111Z,99877.97
2019-01-16T11:56:17.374Z,99874.35
2019-01-16T11:59:05.594Z,99871.00
2019-01-16T12:01:45.813Z,99860.25
2019-01-16T12:04:41.003Z,99865.75
2019-01-16T12:07:44.342Z,99854.27
2019-01-16T12:10:35.701Z,99852.93
2019-01-16T12:13:32.899Z,99855.02
2019-01-16T12:16:33.085Z,99854.31
2019-01-16T12:19:33.339Z,99852.47
2019-01-16T12:22:30.624Z,99843.73
2019-01-16T12:25:17.292Z,99847.29
2019-01-16T12:28:04.157Z,99844.01
2019-01-16T12:30:58.383Z,99841.63
2019-01-16T12:33:52.619Z,99837.83
2019-01-16T12:36:49.624Z,99833.77
2019-01-16T12:39:46.646Z,99827.48
2019-01-16T12:42:33.709Z,99820.41
2019-01-16T12:45:20.745Z,99826.44
2019-01-16T12:48:12.665Z,99824.81
2019-01-16T12:51:03.570Z,99815.73
2019-01-16T12:53:50.145Z,99813.00
2019-01-16T12:56:44.422Z,99818.66
2019-01-16T12:59:31.155Z,99811.85
2019-01-16T13:02:34.624Z,99805.58
2019-01-16T13:05:21.033Z,99795.19
2019-01-16T13:08:04.603Z,99785.59
2019-01-16T13:11:10.618Z,99789.95
2019-01-16T13:13:57.231Z,99796.55
2019-01-16T13:16:38.933Z,99799.04
2019-01-16T13:19:42.037Z,99789.96
2019-01-16T13:22:45.927Z,99794.64
2019-01-16T13:25:42.152Z,99785.84
2019-01-16T13:28:36.005Z,99776.01
2019-01-16T13:31:17.335Z,99779.30
2019-01-16T13:34:11.756Z,99778.44
2019-01-16T13:37:03.031Z,99778.13
2019-01-16T13:39:43.027Z,99774.90
2019-01-16T13:42:40.194Z,99775.95
2019-01-16T13:45:26.772Z,99770.16
2019-01-16T13:48:13.265Z,99761.98
2019-01-16T13:50:59.702Z,99751.93
2019-01-16T13:53:50.789Z,99747.80
2019-01-16T13:56:42.844Z,99745.31
2019-01-16T13:59:29.513Z,99742.00
2019-01-16T14:02:15.476Z,99735.72
2019-01-16T14:04:54.543Z,99732.34
2019-01-16T14:07:33.351Z,99723.31
2019-01-16T14:10:24.495Z,99723.55
2019-01-16T14:13:18.615Z,99722.22
2019-01-16T14:16:04.948Z,99720.08
2019-01-16T14:18:51.406Z,99724.22
2019-01-16T14:21:42.670Z,99709.95
2019-01-16T14:24:23.776Z,99710.27
2019-01-16T14:27:18.140Z,99700.94
2019-01-16T14:30:09.455Z,99692.45
2019-01-16T14:32:56.131Z,99706.17
2019-01-16T14:35:33.232Z,99702.30
2019-01-16T14:38:22.255Z,99697.45
2019-01-16T14:41:09.016Z,99693.61
2019-01-16T14:44:01.257Z,99693.04
2019-01-16T14:46:50.746Z,99699.14
2019-01-16T14:49:32.100Z,99703.26
2019-01-16T14:52:22.092Z,99695.91
2019-01-16T14:55:09.191Z,99689.05
2019-01-16T14:58:06.351Z,99687.14
2019-01-16T15:00:57.804Z,99678.67
2019-01-16T15:03:55.415Z,99676.49
2019-01-16T15:07:01.790Z,99674.25
2019-01-16T15:09:46.923Z,99667.42
2019-01-16T15:12:33.650Z,99665.55
2019-01-16T15:15:20.444Z,99650.22
2019-01-16T15:18:14.566Z,99651.29
2019-01-16T15:21:02.673Z,99651.05
2019-01-16T15:24:02.884Z,99654.66
2019-01-16T15:26:49.567Z,99639.91
2019-01-16T15:29:52.983Z,99640.48
2019-01-16T15:32:46.939Z,99642.18
2019-01-16T15:35:39.551Z,99635.59
2019-01-16T15:38:20.006Z,99643.03
2019-01-16T15:41:06.900Z,99634.84
2019-01-16T15:43:53.545Z,99624.72
2019-01-16T15:46:44.874Z,99626.45
2019-01-16T15:49:41.865Z,99629.27
2019-01-16T15:52:23.935Z,99626.53
2019-01-16T15:55:29.868Z,99622.19
2019-01-16T15:58:20.919Z,99621.91
2019-01-16T16:01:06.737Z,99623.23
2019-01-16T16:03:54.971Z,99617.51
2019-01-16T16:06:37.689Z,99620.98
2019-01-16T16:09:43.102Z,99613.02
2019-01-16T16:12:37.053Z,99616.56
2019-01-16T16:15:24.328Z,99612.70
2019-01-16T16:18:18.474Z,99608.59
2019-01-16T16:21:05.463Z,99602.38
2019-01-16T16:24:04.853Z,99607.95
2019-01-16T16:26:57.137Z,99608.53
2019-01-16T16:29:56.183Z,99586.88
2019-01-16T16:32:47.237Z,99589.36
2019-01-16T16:35:35.225Z,99595.16
2019-01-16T16:38:32.410Z,99586.45
2019-01-16T16:41:23.290Z,99584.23
2019-01-16T16:44:11.448Z,99579.31
2019-01-16T16:46:56.018Z,99575.70
2019-01-16T16:50:02.284Z,99573.19
2019-01-16T16:52:59.013Z,99573.39
2019-01-16T16:55:50.088Z,99565.44
2019-01-16T16:58:32.146Z,99560.44
2019-01-16T17:01:15.261Z,99557.16
2019-01-16T17:04:15.508Z,99553.88
2019-01-16T17:07:02.307Z,99551.44
2019-01-16T17:09:53.374Z,99549.45
2019-01-16T17:12:35.791Z,99551.54
2019-01-16T17:15:42.823Z,99537.11
2019-01-16T17:18:29.548Z,99537.59
2019-01-16T17:21:16.088Z,99536.14
2019-01-16T17:23:54.353Z,99533.22
2019-01-16T17:26:54.303Z,99529.64
2019-01-16T17:29:31.273Z,99523.31
2019-01-16T17:32:34.418Z,99521.97
2019-01-16T17:35:21.170Z,99516.58
2019-01-16T17:38:09.168Z,99514.47
2019-01-16T17:40:57.782Z,99506.67
2019-01-16T17:43:49.767Z,99506.09
2019-01-16T17:46:50.648Z,99508.30
2019-01-16T17:49:50.843Z,99507.23
2019-01-16T17:52:56.758Z,99495.75
2019-01-16T17:55:43.420Z,99483.95
2019-01-16T17:58:40.577Z,99483.29
2019-01-16T18:01:24.376Z,99472.57
2019-01-16T18:04:11.389Z,99478.31
2019-01-16T18:07:03.114Z,99474.70
2019-01-16T18:10:06.452Z,99464.88
2019-01-16T18:12:47.930Z,99471.80
2019-01-16T18:15:39.195Z,99464.95
2019-01-16T18:18:17.633Z,99465.54
2019-01-16T18:21:04.765Z,99457.33
2019-01-16T18:23:58.564Z,99453.06
2019-01-16T18:26:46.870Z,99461.81
2019-01-16T18:29:40.092Z,99457.15
2019-01-16T18:32:29.972Z,99439.69
2019-01-16T18:35:35.917Z,99437.53
2019-01-16T18:38:22.581Z,99434.31
2019-01-16T18:41:01.434Z,99448.80
2019-01-16T18:43:59.723Z,99434.23
2019-01-16T18:46:37.854Z,99430.44
2019-01-16T18:49:13.790Z,99426.08
2019-01-16T18:52:00.216Z,99421.41
2019-01-16T18:55:00.243Z,99417.25
2019-01-16T18:57:46.699Z,99411.02
2019-01-16T19:00:40.011Z,99409.68
2019-01-16T19:03:28.053Z,99407.42
2019-01-16T19:06:28.069Z,99403.77
2019-01-16T19:09:11.062Z,99402.96
2019-01-16T19:12:08.041Z,99399.13
2019-01-16T19:14:59.132Z,99395.08
2019-01-16T19:17:46.159Z,99390.59
2019-01-16T19:20:41.595Z,99396.88
2019-01-16T19:23:38.475Z,99387.05
2019-01-16T19:26:26.533Z,99380.73
2019-01-16T19:29:13.118Z,99373.66
2019-01-16T19:32:04.204Z,99389.20
2019-01-16T19:34:55.834Z,99376.66
2019-01-16T19:37:46.977Z,99374.67
2019-01-16T19:40:33.747Z,99380.42
2019-01-16T19:43:19.645Z,99380.73
2019-01-16T19:46:06.450Z,99375.76
2019-01-16T19:48:57.639Z,99366.71
2019-01-16T19:51:48.768Z,99386.05
2019-01-16T19:54:42.695Z,99377.89
2019-01-16T19:57:29.540Z,99378.22
2019-01-16T20:00:16.223Z,99359.64
2019-01-16T20:03:03.459Z,99373.83
2019-01-16T20:06:06.656Z,99370.28
2019-01-16T20:08:54.673Z,99371.29
2019-01-16T20:12:00.607Z,99367.77
2019-01-16T20:15:00.788Z,99359.98
2019-01-16T20:18:03.697Z,99366.05
2019-01-16T20:20:54.890Z,99356.03
2019-01-16T20:23:55.133Z,99357.30
2019-01-16T20:26:43.311Z,99350.89
2019-01-16T20:29:29.943Z,99344.83
2019-01-16T20:32:20.874Z,99335.83
2019-01-16T20:35:20.942Z,99338.23
2019-01-16T20:38:07.783Z,99345.67
2019-01-16T20:41:08.144Z,99349.30
2019-01-16T20:44:05.426Z,99349.89
2019-01-16T20:46:51.916Z,99337.37
2019-01-16T20:49:48.855Z,99333.86
2019-01-16T20:52:34.448Z,99344.59
2019-01-16T20:55:22.784Z,99328.95
2019-01-16T20:58:17.087Z,99323.16
2019-01-16T21:01:14.389Z,99307.05
2019-01-16T21:03:56.864Z,99303.00
2019-01-16T21:06:50.829Z,99315.40
2019-01-16T21:09:37.373Z,99306.69
2019-01-16T21:12:34.750Z,99313.44
2019-01-16T21:15:13.775Z,99304.36
2019-01-16T21:18:01.899Z,99298.48
2019-01-16T21:20:58.896Z,99293.50
2019-01-16T21:23:45.544Z,99298.73
2019-01-16T21:26:36.625Z,99291.11
2019-01-16T21:29:33.765Z,99276.61
2019-01-16T21:32:18.765Z,99290.66
2019-01-16T21:35:02.617Z,99266.50
2019-01-16T21:37:49.386Z,99276.39
2019-01-16T21:40:40.533Z,99259.75
2019-01-16T21:43:27.280Z,99266.12
2019-01-16T21:46:25.487Z,99273.55
2019-01-16T21:49:12.078Z,99255.00
2019-01-16T21:52:06.066Z,99245.98
2019-01-16T21:54:53.026Z,99258.64
2019-01-16T21:57:30.368Z,99252.16
2019-01-16T22:00:30.566Z,99240.85
2019-01-16T22:03:11.885Z,99246.91
2019-01-16T22:05:58.360Z,99249.39
2019-01-16T22:09:01.655Z,99238.36
2019-01-16T22:11:58.814Z,99247.55
2019-01-16T22:14:45.704Z,99229.49
2019-01-16T22:17:41.966Z,99236.64
2019-01-16T22:20:31.056Z,99218.61
2019-01-16T22:23:21.889Z,99211.80
2019-01-16T22:26:19.862Z,99203.59
2019-01-16T22:29:22.757Z,99197.00
2019-01-16T22:32:09.427Z,99210.98
2019-01-16T22:34:56.479Z,99200.27
2019-01-16T22:37:43.389Z,99184.98
2019-01-16T22:40:34.441Z,99187.55
2019-01-16T22:43:31.583Z,99188.08
2019-01-16T22:46:19.640Z,99171.98
2019-01-16T22:49:10.816Z,99171.67
2019-01-16T22:51:58.847Z,99156.31
2019-01-16T22:54:46.519Z,99155.96
2019-01-16T22:57:34.620Z,99147.76
2019-01-16T23:00:21.540Z,99148.09
2019-01-16T23:02:59.445Z,99139.86
2019-01-16T23:05:45.314Z,99141.48
2019-01-16T23:08:27.294Z,99141.14
2019-01-16T23:11:22.844Z,99118.27
2019-01-16T23:14:01.185Z,99128.92
2019-01-16T23:17:04.454Z,99124.86
2019-01-16T23:19:55.109Z,99108.17
2019-01-16T23:22:52.410Z,99088.28
2019-01-16T23:25:46.539Z,99087.23
2019-01-16T23:28:26.084Z,99079.30
2019-01-16T23:31:06.847Z,99089.52
2019-01-16T23:34:01.100Z,99094.48
2019-01-16T23:36:54.955Z,99070.14
2019-01-16T23:39:43.153Z,99074.02
2019-01-16T23:42:31.023Z,99081.69
2019-01-16T23:45:19.194Z,99070.14
2019-01-16T23:48:10.007Z,99054.33
2019-01-16T23:51:09.949Z,99048.39
2019-01-16T23:53:57.966Z,99052.52
2019-01-16T23:56:44.714Z,99058.91
2019-01-16T23:59:32.844Z,99062.51
